sensor_id;sensor_type;location;lat;lon;timestamp;pressure;altitude;pressure_sealevel;temperature;humidity
74529;BME280;63009;52.584;5.932;2023-07-13T00:00:29;101267.47;;;16.54;100.00
74529;BME280;63009;52.584;5.932;2023-07-13T00:02:57;101263.47;;;16.48;100.00
74529;BME280;63009;52.584;5.932;2023-07-13T00:05:23;101270.63;;;16.48;100.00
74529;BME280;63009;52.584;5.932;2023-07-13T00:07:50;101268.91;;;16.47;99.86
74529;BME280;63009;52.584;5.932;2023-07-13T00:10:16;101267.44;;;16.43;99.90
74529;BME280;63009;52.584;5.932;2023-07-13T00:12:42;101271.19;;;16.40;99.45
74529;BME280;63009;52.584;5.932;2023-07-13T00:15:21;101278.47;;;16.38;100.00
74529;BME280;63009;52.584;5.932;2023-07-13T00:17:52;101274.22;;;16.36;100.00
74529;BME280;63009;52.584;5.932;2023-07-13T00:20:19;101252.09;;;16.22;100.00
74529;BME280;63009;52.584;5.932;2023-07-13T00:22:47;101262.91;;;16.32;100.00
74529;BME280;63009;52.584;5.932;2023-07-13T00:25:12;101271.03;;;16.30;100.00
74529;BME280;63009;52.584;5.932;2023-07-13T00:27:38;101275.16;;;16.23;100.00
74529;BME280;63009;52.584;5.932;2023-07-13T00:30:04;101270.78;;;16.22;100.00
74529;BME280;63009;52.584;5.932;2023-07-13T00:32:30;101277.28;;;16.18;100.00
74529;BME280;63009;52.584;5.932;2023-07-13T00:34:56;101278.25;;;16.17;100.00
74529;BME280;63009;52.584;5.932;2023-07-13T00:37:23;101273.69;;;16.19;100.00
74529;BME280;63009;52.584;5.932;2023-07-13T00:39:48;101273.44;;;16.22;100.00
74529;BME280;63009;52.584;5.932;2023-07-13T00:42:14;101268.19;;;16.10;100.00
74529;BME280;63009;52.584;5.932;2023-07-13T00:44:40;101267.69;;;16.16;100.00
74529;BME280;63009;52.584;5.932;2023-07-13T00:47:05;101266.84;;;16.15;100.00
74529;BME280;63009;52.584;5.932;2023-07-13T00:49:32;101273.50;;;16.10;100.00
74529;BME280;63009;52.584;5.932;2023-07-13T00:52:03;101272.91;;;16.06;100.00
74529;BME280;63009;52.584;5.932;2023-07-13T00:54:39;101276.63;;;16.03;100.00
74529;BME280;63009;52.584;5.932;2023-07-13T00:57:09;101278.22;;;16.06;100.00
74529;BME280;63009;52.584;5.932;2023-07-13T00:59:38;101278.97;;;16.08;100.00
74529;BME280;63009;52.584;5.932;2023-07-13T01:02:05;101274.13;;;16.13;100.00
74529;BME280;63009;52.584;5.932;2023-07-13T01:04:30;101276.91;;;16.12;100.00
74529;BME280;63009;52.584;5.932;2023-07-13T01:06:56;101278.97;;;16.08;100.00
74529;BME280;63009;52.584;5.932;2023-07-13T01:09:23;101283.31;;;16.09;100.00
74529;BME280;63009;52.584;5.932;2023-07-13T01:11:48;101280.78;;;16.08;100.00
74529;BME280;63009;52.584;5.932;2023-07-13T01:14:14;101279.41;;;16.02;100.00
74529;BME280;63009;52.584;5.932;2023-07-13T01:16:41;101280.59;;;15.98;100.00
74529;BME280;63009;52.584;5.932;2023-07-13T01:21:39;101280.09;;;15.93;100.00
74529;BME280;63009;52.584;5.932;2023-07-13T01:24:08;101282.28;;;15.99;100.00
74529;BME280;63009;52.584;5.932;2023-07-13T01:26:34;101277.19;;;15.96;100.00
74529;BME280;63009;52.584;5.932;2023-07-13T01:28:59;101284.78;;;15.89;100.00
74529;BME280;63009;52.584;5.932;2023-07-13T01:31:25;101276.22;;;15.97;100.00
74529;BME280;63009;52.584;5.932;2023-07-13T01:33:51;101274.88;;;15.91;100.00
74529;BME280;63009;52.584;5.932;2023-07-13T01:36:16;101271.25;;;15.92;100.00
74529;BME280;63009;52.584;5.932;2023-07-13T01:38:42;101275.72;;;15.92;100.00
74529;BME280;63009;52.584;5.932;2023-07-13T01:41:07;101275.81;;;15.90;100.00
74529;BME280;63009;52.584;5.932;2023-07-13T01:43:33;101274.59;;;15.83;100.00
74529;BME280;63009;52.584;5.932;2023-07-13T01:45:58;101272.16;;;15.80;100.00
74529;BME280;63009;52.584;5.932;2023-07-13T01:48:23;101276.22;;;15.73;100.00
74529;BME280;63009;52.584;5.932;2023-07-13T01:50:49;101268.13;;;15.62;100.00
74529;BME280;63009;52.584;5.932;2023-07-13T01:53:15;101284.44;;;15.70;100.00
74529;BME280;63009;52.584;5.932;2023-07-13T01:55:41;101287.34;;;15.67;100.00
74529;BME280;63009;52.584;5.932;2023-07-13T01:58:07;101281.47;;;15.62;100.00
74529;BME280;63009;52.584;5.932;2023-07-13T02:00:33;101283.28;;;15.61;100.00
74529;BME280;63009;52.584;5.932;2023-07-13T02:02:58;101287.34;;;15.54;100.00
74529;BME280;63009;52.584;5.932;2023-07-13T02:05:24;101292.22;;;15.48;100.00
74529;BME280;63009;52.584;5.932;2023-07-13T02:07:50;101295.88;;;15.34;100.00
74529;BME280;63009;52.584;5.932;2023-07-13T02:10:16;101282.28;;;15.26;100.00
74529;BME280;63009;52.584;5.932;2023-07-13T02:12:42;101288.34;;;15.28;100.00
74529;BME280;63009;52.584;5.932;2023-07-13T02:15:08;101282.38;;;15.37;100.00
74529;BME280;63009;52.584;5.932;2023-07-13T02:17:35;101283.34;;;15.36;100.00
74529;BME280;63009;52.584;5.932;2023-07-13T02:20:01;101282.16;;;15.27;100.00
74529;BME280;63009;52.584;5.932;2023-07-13T02:22:26;101285.78;;;15.26;100.00
74529;BME280;63009;52.584;5.932;2023-07-13T02:24:52;101274.91;;;15.29;100.00
74529;BME280;63009;52.584;5.932;2023-07-13T02:27:18;101278.66;;;15.27;100.00
74529;BME280;63009;52.584;5.932;2023-07-13T02:29:43;101290.16;;;15.27;100.00
74529;BME280;63009;52.584;5.932;2023-07-13T02:32:09;101287.94;;;15.21;100.00
74529;BME280;63009;52.584;5.932;2023-07-13T02:34:35;101283.13;;;15.13;100.00
74529;BME280;63009;52.584;5.932;2023-07-13T02:37:00;101290.91;;;15.17;100.00
74529;BME280;63009;52.584;5.932;2023-07-13T02:39:25;101293.78;;;15.26;100.00
74529;BME280;63009;52.584;5.932;2023-07-13T02:41:51;101291.22;;;15.25;100.00
74529;BME280;63009;52.584;5.932;2023-07-13T02:44:16;101301.44;;;15.31;100.00
74529;BME280;63009;52.584;5.932;2023-07-13T02:46:42;101295.59;;;15.26;100.00
74529;BME280;63009;52.584;5.932;2023-07-13T02:49:07;101295.06;;;15.21;100.00
74529;BME280;63009;52.584;5.932;2023-07-13T02:51:32;101291.56;;;15.20;100.00
74529;BME280;63009;52.584;5.932;2023-07-13T02:54:01;101293.03;;;15.24;100.00
74529;BME280;63009;52.584;5.932;2023-07-13T02:56:29;101301.66;;;15.28;100.00
74529;BME280;63009;52.584;5.932;2023-07-13T02:58:55;101288.13;;;15.31;100.00
74529;BME280;63009;52.584;5.932;2023-07-13T03:01:22;101281.66;;;15.22;100.00
74529;BME280;63009;52.584;5.932;2023-07-13T03:03:48;101289.53;;;15.24;100.00
74529;BME280;63009;52.584;5.932;2023-07-13T03:06:15;101291.13;;;15.26;100.00
74529;BME280;63009;52.584;5.932;2023-07-13T03:08:41;101296.22;;;15.17;100.00
74529;BME280;63009;52.584;5.932;2023-07-13T03:11:12;101298.03;;;15.16;100.00
74529;BME280;63009;52.584;5.932;2023-07-13T03:13:41;101312.53;;;15.12;100.00
74529;BME280;63009;52.584;5.932;2023-07-13T03:16:08;101297.84;;;15.06;100.00
74529;BME280;63009;52.584;5.932;2023-07-13T03:18:35;101291.75;;;15.04;100.00
74529;BME280;63009;52.584;5.932;2023-07-13T03:21:00;101299.56;;;15.07;100.00
74529;BME280;63009;52.584;5.932;2023-07-13T03:23:26;101303.19;;;15.06;100.00
74529;BME280;63009;52.584;5.932;2023-07-13T03:26:05;101298.88;;;15.04;100.00
74529;BME280;63009;52.584;5.932;2023-07-13T03:28:31;101302.50;;;15.03;100.00
74529;BME280;63009;52.584;5.932;2023-07-13T03:31:17;101308.91;;;15.00;100.00
74529;BME280;63009;52.584;5.932;2023-07-13T03:33:43;101310.94;;;14.97;100.00
74529;BME280;63009;52.584;5.932;2023-07-13T03:36:17;101319.16;;;15.06;100.00
74529;BME280;63009;52.584;5.932;2023-07-13T03:38:48;101311.25;;;14.92;100.00
74529;BME280;63009;52.584;5.932;2023-07-13T03:41:15;101313.47;;;14.85;100.00
74529;BME280;63009;52.584;5.932;2023-07-13T03:43:41;101312.97;;;14.93;100.00
74529;BME280;63009;52.584;5.932;2023-07-13T03:46:07;101312.13;;;14.93;100.00
74529;BME280;63009;52.584;5.932;2023-07-13T03:48:33;101316.88;;;14.88;100.00
74529;BME280;63009;52.584;5.932;2023-07-13T03:50:58;101321.13;;;14.90;100.00
74529;BME280;63009;52.584;5.932;2023-07-13T03:53:23;101327.13;;;14.94;100.00
74529;BME280;63009;52.584;5.932;2023-07-13T03:55:48;101333.94;;;14.98;100.00
74529;BME280;63009;52.584;5.932;2023-07-13T04:00:53;101327.88;;;14.96;100.00
74529;BME280;63009;52.584;5.932;2023-07-13T04:03:19;101335.53;;;15.00;100.00
74529;BME280;63009;52.584;5.932;2023-07-13T04:05:44;101333.59;;;15.02;100.00
74529;BME280;63009;52.584;5.932;2023-07-13T04:08:10;101344.69;;;14.96;100.00
74529;BME280;63009;52.584;5.932;2023-07-13T04:10:35;101337.44;;;14.98;100.00
74529;BME280;63009;52.584;5.932;2023-07-13T04:13:03;101334.91;;;14.97;100.00
74529;BME280;63009;52.584;5.932;2023-07-13T04:15:30;101346.63;;;14.94;100.00
74529;BME280;63009;52.584;5.932;2023-07-13T04:17:56;101352.34;;;15.01;100.00
74529;BME280;63009;52.584;5.932;2023-07-13T04:20:22;101348.09;;;15.11;100.00
74529;BME280;63009;52.584;5.932;2023-07-13T04:22:47;101351.63;;;15.11;100.00
74529;BME280;63009;52.584;5.932;2023-07-13T04:25:13;101343.97;;;15.07;100.00
74529;BME280;63009;52.584;5.932;2023-07-13T04:27:38;101350.22;;;15.19;100.00
74529;BME280;63009;52.584;5.932;2023-07-13T04:30:05;101360.69;;;15.22;100.00
74529;BME280;63009;52.584;5.932;2023-07-13T04:32:31;101362.56;;;15.20;100.00
74529;BME280;63009;52.584;5.932;2023-07-13T04:34:57;101366.19;;;15.19;100.00
74529;BME280;63009;52.584;5.932;2023-07-13T04:37:24;101358.88;;;15.09;100.00
74529;BME280;63009;52.584;5.932;2023-07-13T04:39:50;101370.47;;;15.08;100.00
74529;BME280;63009;52.584;5.932;2023-07-13T04:42:15;101368.56;;;15.10;100.00
74529;BME280;63009;52.584;5.932;2023-07-13T04:44:41;101358.75;;;15.11;100.00
74529;BME280;63009;52.584;5.932;2023-07-13T04:47:06;101363.44;;;15.07;100.00
74529;BME280;63009;52.584;5.932;2023-07-13T04:49:32;101373.03;;;15.23;100.00
74529;BME280;63009;52.584;5.932;2023-07-13T04:51:57;101359.16;;;15.18;100.00
74529;BME280;63009;52.584;5.932;2023-07-13T04:54:23;101371.00;;;15.26;100.00
74529;BME280;63009;52.584;5.932;2023-07-13T04:56:48;101363.88;;;15.27;100.00
74529;BME280;63009;52.584;5.932;2023-07-13T04:59:13;101372.94;;;15.37;100.00
74529;BME280;63009;52.584;5.932;2023-07-13T05:01:39;101368.84;;;15.44;100.00
74529;BME280;63009;52.584;5.932;2023-07-13T05:04:05;101379.22;;;15.49;100.00
74529;BME280;63009;52.584;5.932;2023-07-13T05:06:31;101382.06;;;15.58;100.00
74529;BME280;63009;52.584;5.932;2023-07-13T05:08:56;101377.31;;;15.63;100.00
74529;BME280;63009;52.584;5.932;2023-07-13T05:11:21;101370.06;;;15.65;100.00
74529;BME280;63009;52.584;5.932;2023-07-13T05:13:47;101384.22;;;15.79;100.00
74529;BME280;63009;52.584;5.932;2023-07-13T05:16:12;101378.00;;;15.91;100.00
74529;BME280;63009;52.584;5.932;2023-07-13T05:18:37;101380.72;;;16.02;100.00
74529;BME280;63009;52.584;5.932;2023-07-13T05:21:06;101392.72;;;16.20;100.00
74529;BME280;63009;52.584;5.932;2023-07-13T05:23:33;101387.34;;;16.33;100.00
74529;BME280;63009;52.584;5.932;2023-07-13T05:25:59;101394.84;;;16.52;100.00
74529;BME280;63009;52.584;5.932;2023-07-13T05:28:25;101398.28;;;16.65;100.00
74529;BME280;63009;52.584;5.932;2023-07-13T05:30:51;101392.78;;;16.79;100.00
74529;BME280;63009;52.584;5.932;2023-07-13T05:33:17;101405.00;;;17.06;100.00
74529;BME280;63009;52.584;5.932;2023-07-13T05:35:42;101406.19;;;17.02;100.00
74529;BME280;63009;52.584;5.932;2023-07-13T05:38:07;101409.84;;;17.01;100.00
74529;BME280;63009;52.584;5.932;2023-07-13T05:40:33;101406.47;;;17.10;100.00
74529;BME280;63009;52.584;5.932;2023-07-13T05:42:58;101412.50;;;17.01;100.00
74529;BME280;63009;52.584;5.932;2023-07-13T05:45:24;101412.38;;;17.02;100.00
74529;BME280;63009;52.584;5.932;2023-07-13T05:47:49;101418.94;;;16.98;100.00
74529;BME280;63009;52.584;5.932;2023-07-13T05:50:15;101418.13;;;17.09;100.00
74529;BME280;63009;52.584;5.932;2023-07-13T05:52:40;101425.91;;;17.12;100.00
74529;BME280;63009;52.584;5.932;2023-07-13T05:55:06;101423.09;;;17.13;100.00
74529;BME280;63009;52.584;5.932;2023-07-13T05:57:31;101413.16;;;17.15;100.00
74529;BME280;63009;52.584;5.932;2023-07-13T05:59:57;101424.00;;;17.25;100.00
74529;BME280;63009;52.584;5.932;2023-07-13T06:02:22;101420.09;;;17.29;100.00
74529;BME280;63009;52.584;5.932;2023-07-13T06:04:48;101419.88;;;17.21;100.00
74529;BME280;63009;52.584;5.932;2023-07-13T06:07:13;101436.50;;;17.25;100.00
74529;BME280;63009;52.584;5.932;2023-07-13T06:09:38;101437.06;;;17.17;100.00
74529;BME280;63009;52.584;5.932;2023-07-13T06:12:04;101419.88;;;17.21;100.00
74529;BME280;63009;52.584;5.932;2023-07-13T06:14:30;101428.47;;;17.25;100.00
74529;BME280;63009;52.584;5.932;2023-07-13T06:16:55;101440.16;;;17.24;100.00
74529;BME280;63009;52.584;5.932;2023-07-13T06:19:21;101438.44;;;17.23;100.00
74529;BME280;63009;52.584;5.932;2023-07-13T06:21:46;101441.34;;;17.19;100.00
74529;BME280;63009;52.584;5.932;2023-07-13T06:24:11;101437.94;;;17.17;100.00
74529;BME280;63009;52.584;5.932;2023-07-13T06:26:37;101437.94;;;17.17;100.00
74529;BME280;63009;52.584;5.932;2023-07-13T06:29:02;101434.16;;;17.09;100.00
74529;BME280;63009;52.584;5.932;2023-07-13T06:31:27;101435.25;;;17.06;100.00
74529;BME280;63009;52.584;5.932;2023-07-13T06:33:53;101440.97;;;17.13;100.00
74529;BME280;63009;52.584;5.932;2023-07-13T06:36:18;101449.81;;;17.13;100.00
74529;BME280;63009;52.584;5.932;2023-07-13T06:38:44;101452.66;;;17.23;100.00
74529;BME280;63009;52.584;5.932;2023-07-13T06:41:09;101450.97;;;17.33;100.00
74529;BME280;63009;52.584;5.932;2023-07-13T06:43:34;101445.28;;;17.38;100.00
74529;BME280;63009;52.584;5.932;2023-07-13T06:46:00;101449.53;;;17.40;100.00
74529;BME280;63009;52.584;5.932;2023-07-13T06:48:26;101447.13;;;17.48;100.00
74529;BME280;63009;52.584;5.932;2023-07-13T06:50:51;101455.03;;;17.50;100.00
74529;BME280;63009;52.584;5.932;2023-07-13T06:53:19;101463.63;;;17.54;100.00
74529;BME280;63009;52.584;5.932;2023-07-13T06:55:45;101451.50;;;17.61;100.00
74529;BME280;63009;52.584;5.932;2023-07-13T06:58:11;101455.75;;;17.63;100.00
74529;BME280;63009;52.584;5.932;2023-07-13T07:00:36;101451.41;;;17.62;100.00
74529;BME280;63009;52.584;5.932;2023-07-13T07:03:02;101468.75;;;17.68;100.00
74529;BME280;63009;52.584;5.932;2023-07-13T07:05:27;101473.03;;;17.70;100.00
74529;BME280;63009;52.584;5.932;2023-07-13T07:07:54;101473.69;;;17.74;100.00
74529;BME280;63009;52.584;5.932;2023-07-13T07:10:21;101472.94;;;17.83;100.00
74529;BME280;63009;52.584;5.932;2023-07-13T07:12:47;101468.09;;;17.88;100.00
74529;BME280;63009;52.584;5.932;2023-07-13T07:15:13;101476.47;;;17.95;100.00
74529;BME280;63009;52.584;5.932;2023-07-13T07:17:39;101470.63;;;18.01;100.00
74529;BME280;63009;52.584;5.932;2023-07-13T07:20:05;101471.00;;;18.07;100.00
74529;BME280;63009;52.584;5.932;2023-07-13T07:22:30;101474.78;;;18.16;100.00
74529;BME280;63009;52.584;5.932;2023-07-13T07:24:57;101461.75;;;18.23;100.00
74529;BME280;63009;52.584;5.932;2023-07-13T07:27:23;101461.34;;;18.27;100.00
74529;BME280;63009;52.584;5.932;2023-07-13T07:29:49;101462.19;;;18.39;99.44
74529;BME280;63009;52.584;5.932;2023-07-13T07:32:14;101454.75;;;18.43;98.80
74529;BME280;63009;52.584;5.932;2023-07-13T07:34:40;101454.47;;;18.57;97.26
74529;BME280;63009;52.584;5.932;2023-07-13T07:37:05;101465.09;;;18.58;97.34
74529;BME280;63009;52.584;5.932;2023-07-13T07:39:31;101453.63;;;18.56;96.24
74529;BME280;63009;52.584;5.932;2023-07-13T07:41:57;101442.41;;;19.06;95.05
74529;BME280;63009;52.584;5.932;2023-07-13T07:44:23;101445.28;;;19.55;92.96
74529;BME280;63009;52.584;5.932;2023-07-13T07:46:48;101444.63;;;19.94;88.78
74529;BME280;63009;52.584;5.932;2023-07-13T07:49:14;101446.72;;;20.30;88.98
74529;BME280;63009;52.584;5.932;2023-07-13T07:51:39;101456.25;;;20.54;86.19
74529;BME280;63009;52.584;5.932;2023-07-13T07:54:05;101457.72;;;20.87;81.98
74529;BME280;63009;52.584;5.932;2023-07-13T07:56:32;101472.88;;;21.26;80.67
74529;BME280;63009;52.584;5.932;2023-07-13T07:58:57;101465.19;;;21.22;80.25
74529;BME280;63009;52.584;5.932;2023-07-13T08:01:23;101472.53;;;21.10;80.11
74529;BME280;63009;52.584;5.932;2023-07-13T08:03:48;101456.28;;;20.83;79.28
74529;BME280;63009;52.584;5.932;2023-07-13T08:06:14;101465.31;;;20.43;80.79
74529;BME280;63009;52.584;5.932;2023-07-13T08:08:40;101457.16;;;20.24;82.84
74529;BME280;63009;52.584;5.932;2023-07-13T08:11:07;101458.66;;;20.07;83.37
74529;BME280;63009;52.584;5.932;2023-07-13T08:13:33;101455.00;;;19.77;84.07
74529;BME280;63009;52.584;5.932;2023-07-13T08:15:59;101467.91;;;19.63;89.46
74529;BME280;63009;52.584;5.932;2023-07-13T08:18:24;101468.63;;;19.23;91.87
74529;BME280;63009;52.584;5.932;2023-07-13T08:20:50;101491.41;;;18.85;94.52
74529;BME280;63009;52.584;5.932;2023-07-13T08:23:15;101494.16;;;18.52;97.84
74529;BME280;63009;52.584;5.932;2023-07-13T08:25:42;101515.50;;;18.31;99.98
74529;BME280;63009;52.584;5.932;2023-07-13T08:28:07;101522.91;;;17.94;98.69
74529;BME280;63009;52.584;5.932;2023-07-13T08:30:33;101526.91;;;17.77;97.63
74529;BME280;63009;52.584;5.932;2023-07-13T08:32:58;101530.03;;;17.71;98.25
74529;BME280;63009;52.584;5.932;2023-07-13T08:35:23;101527.78;;;17.54;99.45
74529;BME280;63009;52.584;5.932;2023-07-13T08:37:51;101519.78;;;17.54;98.95
74529;BME280;63009;52.584;5.932;2023-07-13T08:40:17;101525.59;;;17.59;98.44
74529;BME280;63009;52.584;5.932;2023-07-13T08:42:52;101508.34;;;17.51;96.99
74529;BME280;63009;52.584;5.932;2023-07-13T08:47:53;101524.16;;;17.55;98.32
74529;BME280;63009;52.584;5.932;2023-07-13T08:50:23;101513.44;;;17.55;98.65
74529;BME280;63009;52.584;5.932;2023-07-13T08:52:49;101527.66;;;17.55;97.77
74529;BME280;63009;52.584;5.932;2023-07-13T08:55:19;101524.38;;;17.51;99.43
74529;BME280;63009;52.584;5.932;2023-07-13T08:57:50;101503.69;;;17.42;100.00
74529;BME280;63009;52.584;5.932;2023-07-13T09:00:18;101518.31;;;17.49;100.00
74529;BME280;63009;52.584;5.932;2023-07-13T09:02:57;101524.38;;;17.51;100.00
74529;BME280;63009;52.584;5.932;2023-07-13T09:05:36;101532.69;;;17.60;100.00
74529;BME280;63009;52.584;5.932;2023-07-13T09:08:26;101530.84;;;17.60;100.00
74529;BME280;63009;52.584;5.932;2023-07-13T09:16:55;101528.13;;;18.51;99.24
74529;BME280;63009;52.584;5.932;2023-07-13T09:19:26;101538.50;;;18.99;97.77
74529;BME280;63009;52.584;5.932;2023-07-13T09:21:54;101529.75;;;19.29;92.95
74529;BME280;63009;52.584;5.932;2023-07-13T09:24:37;101533.66;;;19.57;92.14
74529;BME280;63009;52.584;5.932;2023-07-13T09:27:13;101542.34;;;19.91;87.61
74529;BME280;63009;52.584;5.932;2023-07-13T09:29:46;101535.84;;;20.24;85.83
74529;BME280;63009;52.584;5.932;2023-07-13T09:32:14;101533.72;;;20.49;86.30
74529;BME280;63009;52.584;5.932;2023-07-13T09:34:41;101524.41;;;20.62;82.81
74529;BME280;63009;52.584;5.932;2023-07-13T09:37:06;101529.28;;;20.88;83.57
74529;BME280;63009;52.584;5.932;2023-07-13T09:39:52;101528.00;;;21.21;82.31
74529;BME280;63009;52.584;5.932;2023-07-13T09:42:20;101526.19;;;21.50;80.93
74529;BME280;63009;52.584;5.932;2023-07-13T09:45:00;101530.50;;;21.80;77.82
74529;BME280;63009;52.584;5.932;2023-07-13T09:47:33;101539.19;;;22.21;75.74
74529;BME280;63009;52.584;5.932;2023-07-13T09:50:06;101530.69;;;22.53;77.08
74529;BME280;63009;52.584;5.932;2023-07-13T09:52:47;101530.63;;;22.63;73.20
74529;BME280;63009;52.584;5.932;2023-07-13T09:55:37;101531.06;;;22.58;71.59
74529;BME280;63009;52.584;5.932;2023-07-13T09:58:15;101536.19;;;22.51;72.36
74529;BME280;63009;52.584;5.932;2023-07-13T10:00:43;101547.84;;;22.25;73.74
74529;BME280;63009;52.584;5.932;2023-07-13T10:03:30;101552.41;;;22.05;75.34
74529;BME280;63009;52.584;5.932;2023-07-13T10:06:11;101555.47;;;21.73;74.33
74529;BME280;63009;52.584;5.932;2023-07-13T10:08:37;101550.81;;;21.36;73.10
74529;BME280;63009;52.584;5.932;2023-07-13T10:11:31;101556.66;;;20.62;74.07
74529;BME280;63009;52.584;5.932;2023-07-13T10:14:02;101549.47;;;20.02;77.60
74529;BME280;63009;52.584;5.932;2023-07-13T10:16:37;101563.59;;;19.83;79.75
74529;BME280;63009;52.584;5.932;2023-07-13T10:19:16;101554.91;;;19.38;80.27
74529;BME280;63009;52.584;5.932;2023-07-13T10:21:57;101569.59;;;19.22;79.73
74529;BME280;63009;52.584;5.932;2023-07-13T10:24:27;101582.00;;;18.91;80.55
74529;BME280;63009;52.584;5.932;2023-07-13T10:29:49;101570.41;;;19.02;84.08
74529;BME280;63009;52.584;5.932;2023-07-13T10:32:19;101574.13;;;19.22;83.95
74529;BME280;63009;52.584;5.932;2023-07-13T10:34:47;101573.13;;;19.23;81.87
74529;BME280;63009;52.584;5.932;2023-07-13T10:37:19;101580.47;;;19.21;82.04
74529;BME280;63009;52.584;5.932;2023-07-13T10:39:46;101587.53;;;19.11;82.72
74529;BME280;63009;52.584;5.932;2023-07-13T10:42:15;101581.69;;;19.17;83.63
74529;BME280;63009;52.584;5.932;2023-07-13T10:44:43;101585.19;;;19.28;83.84
74529;BME280;63009;52.584;5.932;2023-07-13T10:47:14;101577.38;;;19.25;86.84
74529;BME280;63009;52.584;5.932;2023-07-13T10:49:41;101588.78;;;19.39;84.69
74529;BME280;63009;52.584;5.932;2023-07-13T10:52:44;101597.34;;;19.33;85.20
74529;BME280;63009;52.584;5.932;2023-07-13T10:58:36;101589.97;;;19.78;90.46
74529;BME280;63009;52.584;5.932;2023-07-13T11:01:14;101586.00;;;20.24;86.73
74529;BME280;63009;52.584;5.932;2023-07-13T11:06:11;101587.66;;;20.76;86.31
74529;BME280;63009;52.584;5.932;2023-07-13T11:09:00;101597.16;;;20.90;80.47
74529;BME280;63009;52.584;5.932;2023-07-13T11:11:34;101597.53;;;20.75;77.73
74529;BME280;63009;52.584;5.932;2023-07-13T11:14:02;101592.47;;;20.72;80.14
74529;BME280;63009;52.584;5.932;2023-07-13T11:16:35;101594.97;;;20.64;77.85
74529;BME280;63009;52.584;5.932;2023-07-13T11:21:27;101576.97;;;20.45;76.38
74529;BME280;63009;52.584;5.932;2023-07-13T11:24:04;101593.22;;;20.44;76.65
74529;BME280;63009;52.584;5.932;2023-07-13T11:31:43;101584.53;;;21.40;77.98
74529;BME280;63009;52.584;5.932;2023-07-13T11:34:21;101589.59;;;21.82;71.46
74529;BME280;63009;52.584;5.932;2023-07-13T11:36:49;101592.38;;;22.09;70.80
74529;BME280;63009;52.584;5.932;2023-07-13T11:39:21;101594.59;;;22.23;71.00
74529;BME280;63009;52.584;5.932;2023-07-13T11:41:55;101597.06;;;22.54;71.56
74529;BME280;63009;52.584;5.932;2023-07-13T11:44:24;101597.69;;;22.66;69.73
74529;BME280;63009;52.584;5.932;2023-07-13T11:46:54;101590.34;;;22.58;65.61
74529;BME280;63009;52.584;5.932;2023-07-13T11:49:22;101591.81;;;22.52;65.52
74529;BME280;63009;52.584;5.932;2023-07-13T11:51:48;101594.50;;;22.52;66.46
74529;BME280;63009;52.584;5.932;2023-07-13T11:54:27;101603.03;;;22.75;68.26
74529;BME280;63009;52.584;5.932;2023-07-13T11:57:24;101593.22;;;22.84;64.52
74529;BME280;63009;52.584;5.932;2023-07-13T11:59:52;101607.09;;;22.89;63.91
74529;BME280;63009;52.584;5.932;2023-07-13T12:02:29;101605.34;;;22.70;63.77
74529;BME280;63009;52.584;5.932;2023-07-13T12:04:56;101610.31;;;22.65;63.81
74529;BME280;63009;52.584;5.932;2023-07-13T12:07:22;101611.81;;;22.77;62.37
74529;BME280;63009;52.584;5.932;2023-07-13T12:09:47;101613.22;;;22.81;63.39
74529;BME280;63009;52.584;5.932;2023-07-13T12:12:21;101601.16;;;22.86;65.19
74529;BME280;63009;52.584;5.932;2023-07-13T12:14:53;101607.72;;;22.73;61.95
74529;BME280;63009;52.584;5.932;2023-07-13T12:17:22;101598.94;;;22.44;61.61
74529;BME280;63009;52.584;5.932;2023-07-13T12:19:49;101608.91;;;22.61;63.46
74529;BME280;63009;52.584;5.932;2023-07-13T12:22:17;101611.38;;;22.82;63.92
74529;BME280;63009;52.584;5.932;2023-07-13T12:24:43;101622.03;;;22.84;62.99
74529;BME280;63009;52.584;5.932;2023-07-13T12:27:27;101610.09;;;22.76;59.99
74529;BME280;63009;52.584;5.932;2023-07-13T12:32:19;101611.22;;;23.11;63.65
74529;BME280;63009;52.584;5.932;2023-07-13T12:35:14;101596.34;;;23.07;62.20
74529;BME280;63009;52.584;5.932;2023-07-13T12:37:42;101618.69;;;23.17;61.97
74529;BME280;63009;52.584;5.932;2023-07-13T12:40:19;101601.13;;;23.13;61.16
74529;BME280;63009;52.584;5.932;2023-07-13T12:42:46;101613.78;;;23.13;60.80
74529;BME280;63009;52.584;5.932;2023-07-13T12:45:23;101617.31;;;23.13;61.97
74529;BME280;63009;52.584;5.932;2023-07-13T12:47:53;101617.91;;;23.07;58.57
74529;BME280;63009;52.584;5.932;2023-07-13T12:50:21;101623.56;;;23.14;58.29
74529;BME280;63009;52.584;5.932;2023-07-13T12:52:52;101625.00;;;23.08;58.62
74529;BME280;63009;52.584;5.932;2023-07-13T12:55:19;101622.06;;;23.01;58.04
74529;BME280;63009;52.584;5.932;2023-07-13T13:00:24;101619.22;;;23.03;57.13
74529;BME280;63009;52.584;5.932;2023-07-13T13:02:51;101631.25;;;23.08;58.51
74529;BME280;63009;52.584;5.932;2023-07-13T13:05:17;101641.06;;;23.27;62.28
74529;BME280;63009;52.584;5.932;2023-07-13T13:07:42;101638.44;;;23.35;59.93
74529;BME280;63009;52.584;5.932;2023-07-13T13:10:13;101629.75;;;23.42;59.26
74529;BME280;63009;52.584;5.932;2023-07-13T13:12:39;101647.56;;;23.52;60.28
74529;BME280;63009;52.584;5.932;2023-07-13T13:15:08;101647.53;;;23.34;56.74
74529;BME280;63009;52.584;5.932;2023-07-13T13:17:34;101640.22;;;23.27;60.53
74529;BME280;63009;52.584;5.932;2023-07-13T13:19:59;101643.59;;;23.11;59.36
74529;BME280;63009;52.584;5.932;2023-07-13T13:22:24;101647.84;;;22.86;58.02